createdAt,value
2018-06-27T00:00:24.124Z,13.80
2018-06-27T00:02:53.400Z,14.63
2018-06-27T00:05:22.453Z,7.30
2018-06-27T00:07:51.524Z,6.53
2018-06-27T00:10:21.112Z,5.83
2018-06-27T00:12:50.225Z,5.97
2018-06-27T00:15:19.306Z,9.37
2018-06-27T00:17:48.992Z,10.60
2018-06-27T00:20:18.057Z,7.57
2018-06-27T00:22:47.106Z,10.60
2018-06-27T00:25:16.556Z,6.97
2018-06-27T00:27:45.121Z,5.87
2018-06-27T00:30:14.226Z,8.67
2018-06-27T00:32:43.299Z,6.70
2018-06-27T00:35:12.676Z,6.20
2018-06-27T00:37:42.035Z,10.17
2018-06-27T00:40:11.121Z,7.37
2018-06-27T00:42:40.252Z,6.40
2018-06-27T00:45:09.927Z,5.73
2018-06-27T00:47:39.028Z,5.53
2018-06-27T00:50:07.774Z,9.60
2018-06-27T00:52:37.302Z,15.10
2018-06-27T00:55:06.759Z,7.20
2018-06-27T00:57:35.963Z,7.70
2018-06-27T01:00:05.528Z,11.20
2018-06-27T01:02:34.247Z,7.03
2018-06-27T01:05:03.345Z,8.83
2018-06-27T01:07:32.845Z,10.30
2018-06-27T01:10:01.928Z,7.27
2018-06-27T01:12:31.020Z,10.17
2018-06-27T01:15:00.312Z,7.20
2018-06-27T01:17:29.398Z,6.77
2018-06-27T01:19:58.146Z,9.63
2018-06-27T01:22:27.281Z,8.40
2018-06-27T01:24:56.371Z,11.10
2018-06-27T01:27:25.108Z,8.90
2018-06-27T01:29:54.624Z,9.67
2018-06-27T01:32:23.748Z,10.97
2018-06-27T01:34:52.900Z,19.10
2018-06-27T01:37:22.720Z,13.37
2018-06-27T01:39:51.767Z,9.53
2018-06-27T01:42:20.946Z,8.10
2018-06-27T01:44:50.170Z,10.90
2018-06-27T01:47:18.877Z,14.63
2018-06-27T01:49:47.839Z,8.83
2018-06-27T01:52:16.855Z,11.60
2018-06-27T01:54:46.008Z,7.93
2018-06-27T01:57:15.316Z,10.20
2018-06-27T01:59:44.506Z,11.87
2018-06-27T02:02:13.692Z,8.17
2018-06-27T02:04:42.804Z,12.67
2018-06-27T02:07:12.216Z,9.57
2018-06-27T02:09:41.370Z,10.70
2018-06-27T02:12:10.492Z,8.93
2018-06-27T02:14:39.864Z,9.00
2018-06-27T02:17:09.014Z,15.00
2018-06-27T02:19:38.217Z,10.63
2018-06-27T02:22:07.330Z,13.00
2018-06-27T02:24:36.326Z,9.60
2018-06-27T02:27:05.490Z,14.67
2018-06-27T02:29:34.761Z,16.80
2018-06-27T02:32:03.870Z,12.53
2018-06-27T02:34:32.944Z,22.80
2018-06-27T02:37:02.612Z,13.07
2018-06-27T02:39:31.962Z,13.13
2018-06-27T02:42:01.185Z,9.63
2018-06-27T02:44:30.530Z,13.77
2018-06-27T02:46:59.650Z,11.70
2018-06-27T02:49:28.789Z,15.23
2018-06-27T02:51:58.150Z,11.77
2018-06-27T02:54:27.341Z,12.20
2018-06-27T02:56:56.877Z,13.10
2018-06-27T02:59:26.373Z,14.93
2018-06-27T03:01:55.548Z,12.37
2018-06-27T03:04:24.653Z,15.77
2018-06-27T03:06:54.010Z,20.40
2018-06-27T03:09:23.219Z,15.37
2018-06-27T03:11:52.289Z,16.30
2018-06-27T03:14:21.276Z,12.63
2018-06-27T03:16:50.344Z,11.63
2018-06-27T03:19:19.468Z,15.03
2018-06-27T03:21:48.816Z,15.43
2018-06-27T03:24:17.972Z,14.13
2018-06-27T03:26:47.180Z,11.87
2018-06-27T03:29:17.284Z,16.40
2018-06-27T03:31:46.343Z,21.40
2018-06-27T03:34:15.482Z,13.07
2018-06-27T03:36:45.063Z,15.27
2018-06-27T03:39:14.155Z,18.10
2018-06-27T03:41:43.739Z,21.23
2018-06-27T03:44:13.096Z,15.73
2018-06-27T03:46:42.263Z,14.47
2018-06-27T03:49:11.403Z,14.60
2018-06-27T03:51:40.502Z,20.27
2018-06-27T03:54:09.993Z,11.10
2018-06-27T03:56:39.098Z,18.30
2018-06-27T03:59:08.279Z,13.57
2018-06-27T04:01:37.556Z,18.10
2018-06-27T04:04:06.669Z,17.70
2018-06-27T04:06:35.698Z,11.20
2018-06-27T04:09:08.469Z,13.20
2018-06-27T04:11:37.645Z,17.23
2018-06-27T04:14:07.005Z,12.63
2018-06-27T04:16:36.159Z,13.10
2018-06-27T04:19:05.279Z,11.90
2018-06-27T04:21:34.884Z,12.53
2018-06-27T04:24:04.104Z,17.97
2018-06-27T04:26:33.265Z,16.40
2018-06-27T04:29:02.650Z,12.53
2018-06-27T04:31:31.983Z,16.47
2018-06-27T04:34:01.059Z,14.47
2018-06-27T04:36:30.560Z,10.57
2018-06-27T04:38:59.716Z,14.43
2018-06-27T04:41:28.801Z,12.70
2018-06-27T04:43:58.369Z,18.03
2018-06-27T04:46:27.431Z,9.33
2018-06-27T04:48:56.607Z,12.00
2018-06-27T04:51:26.441Z,14.50
2018-06-27T04:53:55.535Z,10.20
2018-06-27T04:56:24.959Z,16.13
2018-06-27T04:58:54.281Z,12.63
2018-06-27T05:01:23.405Z,11.23
2018-06-27T05:03:52.645Z,11.73
2018-06-27T05:06:21.788Z,13.30
2018-06-27T05:08:50.816Z,14.43
2018-06-27T05:11:19.876Z,9.73
2018-06-27T05:13:49.553Z,13.90
2018-06-27T05:16:18.710Z,13.07
2018-06-27T05:18:48.403Z,11.67
2018-06-27T05:21:17.597Z,14.80
2018-06-27T05:23:46.648Z,10.23
2018-06-27T05:26:15.711Z,16.37
2018-06-27T05:28:45.261Z,16.87
2018-06-27T05:31:14.601Z,11.63
2018-06-27T05:33:43.685Z,12.10
2018-06-27T05:36:13.168Z,11.60
2018-06-27T05:38:42.297Z,11.17
2018-06-27T05:41:11.455Z,14.50
2018-06-27T05:43:41.107Z,10.70
2018-06-27T05:46:11.171Z,10.00
2018-06-27T05:48:40.237Z,9.83
2018-06-27T05:51:09.695Z,11.30
2018-06-27T05:53:38.788Z,12.10
2018-06-27T05:56:07.881Z,12.40
2018-06-27T05:58:37.079Z,12.03
2018-06-27T06:01:06.300Z,11.23
2018-06-27T06:03:35.417Z,11.63
2018-06-27T06:06:04.724Z,9.80
2018-06-27T06:08:33.869Z,13.37
2018-06-27T06:11:03.108Z,11.13
2018-06-27T06:13:32.397Z,9.10
2018-06-27T06:16:01.193Z,7.70
2018-06-27T06:18:29.920Z,8.67
2018-06-27T06:20:59.370Z,18.90
2018-06-27T06:23:28.586Z,8.20
2018-06-27T06:25:57.646Z,9.10
2018-06-27T06:28:26.988Z,12.07
2018-06-27T06:30:56.223Z,13.30
2018-06-27T06:33:25.317Z,7.70
2018-06-27T06:35:54.812Z,13.33
2018-06-27T06:38:23.948Z,13.57
2018-06-27T06:40:53.720Z,10.53
2018-06-27T06:43:22.999Z,10.23
2018-06-27T06:45:52.821Z,15.27
2018-06-27T06:48:22.134Z,12.13
2018-06-27T06:50:51.985Z,13.97
2018-06-27T06:53:21.095Z,12.33
2018-06-27T06:55:50.221Z,12.50
2018-06-27T06:58:19.735Z,11.23
2018-06-27T07:00:48.849Z,6.83
2018-06-27T07:03:17.933Z,7.37
2018-06-27T07:05:47.319Z,9.30
2018-06-27T07:08:16.421Z,14.30
2018-06-27T07:10:45.485Z,7.83
2018-06-27T07:13:15.020Z,7.57
2018-06-27T07:15:44.214Z,11.90
2018-06-27T07:18:13.383Z,7.90
2018-06-27T07:20:42.822Z,9.30
2018-06-27T07:23:11.927Z,12.40
2018-06-27T07:25:41.060Z,6.40
2018-06-27T07:28:10.449Z,7.67
2018-06-27T07:30:39.512Z,14.40
2018-06-27T07:33:08.737Z,8.17
2018-06-27T07:35:37.938Z,14.73
2018-06-27T07:38:07.163Z,12.23
2018-06-27T07:40:36.318Z,9.53
2018-06-27T07:43:05.888Z,7.53
2018-06-27T07:45:34.961Z,13.80
2018-06-27T07:48:03.750Z,10.70
2018-06-27T07:50:33.714Z,17.47
2018-06-27T07:53:02.786Z,8.60
2018-06-27T07:55:31.966Z,11.70
2018-06-27T07:58:01.825Z,9.83
2018-06-27T08:00:31.110Z,10.97
2018-06-27T08:03:00.222Z,9.50
2018-06-27T08:05:29.970Z,10.20
2018-06-27T08:07:59.078Z,12.33
2018-06-27T08:10:28.144Z,11.53
2018-06-27T08:12:57.870Z,8.00
2018-06-27T08:15:26.932Z,10.87
2018-06-27T08:17:56.151Z,7.90
2018-06-27T08:20:25.237Z,7.93
2018-06-27T08:22:54.448Z,11.83
2018-06-27T08:25:23.564Z,12.60
2018-06-27T08:27:53.150Z,11.30
2018-06-27T08:30:22.274Z,10.03
2018-06-27T08:32:51.313Z,17.83
2018-06-27T08:35:20.942Z,12.13
2018-06-27T08:37:50.084Z,9.23
2018-06-27T08:40:19.196Z,16.30
2018-06-27T08:42:48.834Z,8.67
2018-06-27T08:45:17.973Z,9.40
2018-06-27T08:47:47.248Z,17.60
2018-06-27T08:50:18.462Z,8.27
2018-06-27T08:52:48.670Z,12.00
2018-06-27T08:55:17.877Z,8.47
2018-06-27T08:57:47.101Z,10.20
2018-06-27T09:00:16.309Z,12.50
2018-06-27T09:02:45.494Z,11.10
2018-06-27T09:05:14.668Z,7.77
2018-06-27T09:07:43.799Z,13.20
2018-06-27T09:10:13.241Z,13.77
2018-06-27T09:12:42.366Z,7.30
2018-06-27T09:15:11.620Z,10.23
2018-06-27T09:17:41.147Z,8.90
2018-06-27T09:20:10.337Z,9.67
2018-06-27T09:22:39.502Z,9.93
2018-06-27T09:25:08.393Z,10.67
2018-06-27T09:27:37.373Z,7.17
2018-06-27T09:30:06.584Z,7.13
2018-06-27T09:32:36.176Z,8.30
2018-06-27T09:35:05.415Z,8.90
2018-06-27T09:37:34.613Z,10.63
2018-06-27T09:40:03.992Z,7.50
2018-06-27T09:42:32.719Z,6.17
2018-06-27T09:45:01.766Z,14.03
2018-06-27T09:47:31.179Z,10.80
2018-06-27T09:50:00.272Z,8.77
2018-06-27T09:52:28.981Z,5.20
2018-06-27T09:54:58.781Z,8.13
2018-06-27T09:57:27.885Z,7.33
2018-06-27T09:59:56.933Z,6.70
2018-06-27T10:02:26.477Z,6.70
2018-06-27T10:04:55.555Z,7.10
2018-06-27T10:07:24.617Z,6.20
2018-06-27T10:09:54.010Z,3.90
2018-06-27T10:12:23.075Z,3.63
2018-06-27T10:14:52.166Z,4.03
2018-06-27T10:17:21.714Z,3.63
2018-06-27T10:19:50.685Z,3.57
2018-06-27T10:22:19.916Z,7.10
2018-06-27T10:24:48.985Z,4.63
2018-06-27T10:27:18.054Z,4.17
2018-06-27T10:29:47.210Z,6.23
2018-06-27T10:32:16.521Z,9.83
2018-06-27T10:34:45.734Z,2.57
2018-06-27T10:37:14.848Z,6.27
2018-06-27T10:39:44.817Z,3.43
2018-06-27T10:42:13.912Z,4.90
2018-06-27T10:44:43.276Z,5.77
2018-06-27T10:47:12.624Z,7.03
2018-06-27T10:49:41.425Z,4.63
2018-06-27T10:52:10.448Z,6.20
2018-06-27T10:54:44.088Z,4.13
2018-06-27T10:57:13.654Z,4.93
2018-06-27T10:59:43.069Z,9.23
2018-06-27T11:02:12.237Z,4.57
2018-06-27T11:04:41.300Z,3.33
2018-06-27T11:07:10.600Z,2.90
2018-06-27T11:09:39.682Z,8.80
2018-06-27T11:12:09.115Z,3.20
2018-06-27T11:14:38.324Z,3.37
2018-06-27T11:17:07.112Z,2.70
2018-06-27T11:19:36.559Z,4.90
2018-06-27T11:22:05.739Z,4.23
2018-06-27T11:24:34.955Z,3.07
2018-06-27T11:27:04.246Z,5.50
2018-06-27T11:29:33.743Z,3.87
2018-06-27T11:32:02.865Z,3.17
2018-06-27T11:34:31.918Z,4.43
2018-06-27T11:37:01.298Z,3.70
2018-06-27T11:39:30.421Z,4.37
2018-06-27T11:41:59.468Z,3.13
2018-06-27T11:44:28.906Z,7.43
2018-06-27T11:46:57.943Z,5.00
2018-06-27T11:49:27.039Z,8.23
2018-06-27T11:51:56.375Z,3.83
2018-06-27T11:54:25.568Z,3.40
2018-06-27T11:56:54.625Z,12.13
2018-06-27T11:59:24.333Z,4.60
2018-06-27T12:01:53.502Z,4.40
2018-06-27T12:04:22.572Z,5.47
2018-06-27T12:06:52.029Z,4.00
2018-06-27T12:09:21.160Z,2.97
2018-06-27T12:11:50.193Z,2.80
2018-06-27T12:14:19.603Z,2.97
2018-06-27T12:16:48.830Z,3.10
2018-06-27T12:19:17.484Z,5.57
2018-06-27T12:21:46.948Z,6.10
2018-06-27T12:24:15.735Z,6.43
2018-06-27T12:26:44.757Z,6.63
2018-06-27T12:29:14.205Z,3.13
2018-06-27T12:31:43.278Z,6.30
2018-06-27T12:34:12.373Z,2.80
2018-06-27T12:36:41.776Z,4.50
2018-06-27T12:39:10.839Z,3.03
2018-06-27T12:41:39.608Z,4.93
2018-06-27T12:44:08.520Z,2.80
2018-06-27T12:46:38.534Z,5.70
2018-06-27T12:49:07.890Z,4.53
2018-06-27T12:51:37.070Z,5.77
2018-06-27T12:54:06.197Z,3.80
2018-06-27T12:56:35.347Z,4.13
2018-06-27T12:59:04.615Z,4.93
2018-06-27T13:01:34.482Z,3.00
2018-06-27T13:04:03.666Z,7.93
2018-06-27T13:06:33.052Z,5.70
2018-06-27T13:09:02.221Z,5.10
2018-06-27T13:11:31.407Z,2.97
2018-06-27T13:14:00.634Z,3.00
2018-06-27T13:16:29.823Z,5.70
2018-06-27T13:18:59.014Z,2.70
2018-06-27T13:21:28.172Z,3.77
2018-06-27T13:23:57.162Z,4.70
2018-06-27T13:26:26.508Z,2.70
2018-06-27T13:28:55.892Z,4.57
2018-06-27T13:31:25.359Z,4.70
2018-06-27T13:33:54.375Z,5.43
2018-06-27T13:36:23.704Z,3.03
2018-06-27T13:38:52.773Z,4.07
2018-06-27T13:41:22.076Z,5.87
2018-06-27T13:43:51.682Z,2.80
2018-06-27T13:46:20.787Z,13.00
2018-06-27T13:48:49.545Z,8.73
2018-06-27T13:51:18.801Z,2.90
2018-06-27T13:53:47.930Z,4.27
2018-06-27T13:56:17.317Z,3.20
2018-06-27T13:58:46.579Z,4.40
2018-06-27T14:01:15.343Z,3.03
2018-06-27T14:03:44.143Z,3.90
2018-06-27T14:06:13.193Z,3.70
2018-06-27T14:08:42.457Z,3.80
2018-06-27T14:11:11.708Z,13.00
2018-06-27T14:13:41.032Z,5.57
2018-06-27T14:16:10.136Z,5.33
2018-06-27T14:18:38.931Z,9.90
2018-06-27T14:21:08.010Z,5.00
2018-06-27T14:23:37.179Z,5.00
2018-06-27T14:26:06.300Z,5.13
2018-06-27T14:28:35.600Z,3.13
2018-06-27T14:31:04.699Z,3.10
2018-06-27T14:33:33.547Z,2.97
2018-06-27T14:36:03.023Z,6.30
2018-06-27T14:38:32.135Z,3.70
2018-06-27T14:41:01.356Z,7.13
2018-06-27T14:43:30.598Z,3.23
2018-06-27T14:45:59.757Z,4.80
2018-06-27T14:48:28.932Z,3.03
2018-06-27T14:50:58.479Z,3.50
2018-06-27T14:53:27.510Z,3.53
2018-06-27T14:55:56.697Z,8.73
2018-06-27T14:58:25.903Z,4.87
2018-06-27T15:00:55.080Z,4.00
2018-06-27T15:03:23.865Z,7.83
2018-06-27T15:05:53.370Z,9.37
2018-06-27T15:08:22.173Z,3.50
2018-06-27T15:10:51.235Z,6.70
2018-06-27T15:13:20.585Z,3.00
2018-06-27T15:15:49.734Z,3.20
2018-06-27T15:18:18.871Z,7.53
2018-06-27T15:20:48.147Z,2.80
2018-06-27T15:23:17.179Z,4.57
2018-06-27T15:25:46.382Z,4.67
2018-06-27T15:28:15.545Z,3.27
2018-06-27T15:30:44.259Z,3.10
2018-06-27T15:33:13.300Z,7.63
2018-06-27T15:35:42.831Z,3.10
2018-06-27T15:38:12.191Z,8.87
2018-06-27T15:40:41.340Z,4.40
2018-06-27T15:43:10.682Z,3.97
2018-06-27T15:45:39.749Z,2.93
2018-06-27T15:48:08.890Z,4.30
2018-06-27T15:50:38.294Z,12.63
2018-06-27T15:53:07.355Z,2.60
2018-06-27T15:55:36.533Z,4.90
2018-06-27T15:58:05.900Z,3.33
2018-06-27T16:00:34.734Z,5.20
2018-06-27T16:03:03.821Z,12.17
2018-06-27T16:05:33.137Z,8.87
2018-06-27T16:08:02.365Z,4.17
2018-06-27T16:10:31.449Z,4.70
2018-06-27T16:13:01.064Z,4.37
2018-06-27T16:15:30.119Z,3.43
2018-06-27T16:17:59.310Z,3.73
2018-06-27T16:20:28.541Z,4.00
2018-06-27T16:22:57.654Z,4.83
2018-06-27T16:25:26.742Z,8.90
2018-06-27T16:27:56.235Z,7.80
2018-06-27T16:30:25.333Z,12.00
2018-06-27T16:32:54.425Z,16.70
2018-06-27T16:35:23.827Z,15.93
2018-06-27T16:37:52.992Z,6.60
2018-06-27T16:40:22.049Z,13.27
2018-06-27T16:42:51.437Z,4.73
2018-06-27T16:45:20.644Z,5.70
2018-06-27T16:47:49.753Z,6.73
2018-06-27T16:50:18.904Z,3.87
2018-06-27T16:52:48.082Z,5.63
2018-06-27T16:55:17.187Z,4.27
2018-06-27T16:57:46.391Z,11.27
2018-06-27T17:00:15.453Z,12.83
2018-06-27T17:02:44.581Z,11.33
2018-06-27T17:05:13.773Z,12.27
2018-06-27T17:07:42.947Z,4.70
2018-06-27T17:10:12.197Z,4.90
2018-06-27T17:12:41.449Z,6.47
2018-06-27T17:15:10.549Z,5.00
2018-06-27T17:17:39.667Z,8.40
2018-06-27T17:20:09.113Z,6.97
2018-06-27T17:22:37.863Z,4.23
2018-06-27T17:25:06.895Z,5.10
2018-06-27T17:27:36.341Z,6.20
2018-06-27T17:30:05.855Z,5.60
2018-06-27T17:32:34.929Z,6.13
2018-06-27T17:35:04.281Z,6.87
2018-06-27T17:37:33.433Z,7.50
2018-06-27T17:40:02.589Z,5.37
2018-06-27T17:42:31.766Z,7.73
2018-06-27T17:45:00.722Z,7.20
2018-06-27T17:47:29.857Z,5.20
2018-06-27T17:49:59.405Z,9.37
2018-06-27T17:52:28.583Z,4.30
2018-06-27T17:54:57.371Z,3.87
2018-06-27T17:57:26.552Z,4.53
2018-06-27T17:59:55.658Z,4.93
2018-06-27T18:02:24.815Z,7.90
2018-06-27T18:04:54.420Z,7.37
2018-06-27T18:07:23.610Z,4.10
2018-06-27T18:09:52.912Z,6.57
2018-06-27T18:12:22.208Z,4.77
2018-06-27T18:14:51.350Z,7.13
2018-06-27T18:17:20.100Z,3.40
2018-06-27T18:19:49.738Z,6.70
2018-06-27T18:22:18.921Z,3.90
2018-06-27T18:24:48.052Z,3.60
2018-06-27T18:27:17.472Z,10.17
2018-06-27T18:29:46.640Z,8.10
2018-06-27T18:32:15.844Z,9.33
2018-06-27T18:34:44.672Z,7.47
2018-06-27T18:37:13.702Z,6.13
2018-06-27T18:39:42.861Z,4.00
2018-06-27T18:42:12.284Z,4.20
2018-06-27T18:44:41.346Z,3.50
2018-06-27T18:47:10.455Z,4.37
2018-06-27T18:49:39.633Z,7.40
2018-06-27T18:52:08.732Z,3.30
2018-06-27T18:54:37.879Z,5.13
2018-06-27T18:57:07.516Z,5.47
2018-06-27T18:59:42.656Z,5.77
2018-06-27T19:02:11.970Z,6.07
2018-06-27T19:04:41.124Z,4.73
2018-06-27T19:07:10.202Z,5.30
2018-06-27T19:09:40.209Z,5.60
2018-06-27T19:12:09.224Z,6.07
2018-06-27T19:14:38.766Z,9.87
2018-06-27T19:17:08.038Z,4.83
2018-06-27T19:19:37.214Z,4.23
2018-06-27T19:22:06.366Z,3.80
2018-06-27T19:24:35.641Z,5.00
2018-06-27T19:27:04.386Z,4.37
2018-06-27T19:29:33.412Z,4.53
2018-06-27T19:32:02.626Z,5.97
2018-06-27T19:34:31.744Z,5.37
2018-06-27T19:37:00.840Z,6.07
2018-06-27T19:39:37.460Z,3.90
2018-06-27T19:41:59.371Z,3.93
2018-06-27T19:44:28.126Z,4.13
2018-06-27T19:46:57.260Z,4.60
2018-06-27T19:49:26.308Z,5.50
2018-06-27T19:51:55.424Z,6.43
2018-06-27T19:54:24.608Z,3.80
2018-06-27T19:56:53.857Z,4.40
2018-06-27T19:59:22.507Z,29.03
2018-06-27T20:01:51.597Z,27.17
2018-06-27T20:04:20.701Z,25.20
2018-06-27T20:06:50.671Z,4.93
2018-06-27T20:09:20.315Z,6.70
2018-06-27T20:11:49.369Z,9.43
2018-06-27T20:14:18.512Z,3.90
2018-06-27T20:16:48.318Z,13.23
2018-06-27T20:19:17.536Z,4.70
2018-06-27T20:21:46.582Z,6.30
2018-06-27T20:24:15.990Z,7.50
2018-06-27T20:26:45.078Z,4.80
2018-06-27T20:29:14.168Z,5.83
2018-06-27T20:31:43.594Z,4.47
2018-06-27T20:34:12.661Z,4.63
2018-06-27T20:36:41.400Z,7.63
2018-06-27T20:39:10.938Z,9.03
2018-06-27T20:41:40.558Z,4.23
2018-06-27T20:44:10.110Z,3.50
2018-06-27T20:46:39.422Z,5.93
2018-06-27T20:49:08.512Z,6.23
2018-06-27T20:51:37.725Z,3.87
2018-06-27T20:54:07.186Z,4.03
2018-06-27T20:56:37.227Z,3.53
2018-06-27T20:59:06.318Z,3.17
2018-06-27T21:01:35.458Z,3.50
2018-06-27T21:04:04.562Z,8.43
2018-06-27T21:06:33.295Z,3.33
2018-06-27T21:09:02.510Z,3.10
2018-06-27T21:11:31.625Z,3.83
2018-06-27T21:14:00.690Z,2.90
2018-06-27T21:16:30.154Z,5.47
2018-06-27T21:18:59.574Z,3.17
2018-06-27T21:21:28.725Z,3.00
2018-06-27T21:23:58.394Z,5.00
2018-06-27T21:26:27.506Z,6.10
2018-06-27T21:28:56.552Z,3.10
2018-06-27T21:31:26.236Z,4.20
2018-06-27T21:33:55.362Z,2.80
2018-06-27T21:36:24.464Z,4.70
2018-06-27T21:38:53.785Z,3.53
2018-06-27T21:41:22.931Z,4.30
2018-06-27T21:43:52.020Z,3.30
2018-06-27T21:46:21.354Z,4.40
2018-06-27T21:48:50.400Z,3.47
2018-06-27T21:51:19.457Z,5.53
2018-06-27T21:53:48.924Z,3.93
2018-06-27T21:56:18.001Z,3.13
2018-06-27T21:58:47.072Z,3.40
2018-06-27T22:01:16.576Z,3.50
2018-06-27T22:03:45.676Z,2.93
2018-06-27T22:06:14.678Z,3.30
2018-06-27T22:08:44.104Z,3.07
2018-06-27T22:11:13.275Z,5.43
2018-06-27T22:13:42.353Z,7.43
2018-06-27T22:16:11.792Z,3.40
2018-06-27T22:18:40.944Z,4.60
2018-06-27T22:21:10.271Z,8.43
2018-06-27T22:23:40.089Z,3.57
2018-06-27T22:26:09.305Z,7.07
2018-06-27T22:28:38.422Z,3.90
2018-06-27T22:31:08.076Z,4.07
2018-06-27T22:33:37.102Z,3.20
2018-06-27T22:36:06.132Z,5.63
2018-06-27T22:38:35.397Z,3.57
2018-06-27T22:41:04.641Z,3.67
2018-06-27T22:43:33.810Z,3.20
2018-06-27T22:46:02.946Z,3.13
2018-06-27T22:48:31.906Z,3.20
2018-06-27T22:51:00.949Z,7.67
2018-06-27T22:53:30.342Z,3.37
2018-06-27T22:56:00.210Z,3.00
2018-06-27T22:58:29.289Z,3.30
2018-06-27T23:00:58.842Z,3.50
2018-06-27T23:03:27.888Z,3.80
2018-06-27T23:05:56.687Z,3.60
2018-06-27T23:08:25.396Z,5.20
2018-06-27T23:10:54.422Z,10.50
2018-06-27T23:13:23.563Z,3.20
2018-06-27T23:15:52.812Z,3.10
2018-06-27T23:18:21.694Z,3.47
2018-06-27T23:20:50.746Z,3.40
2018-06-27T23:23:20.152Z,4.73
2018-06-27T23:25:49.304Z,3.60
2018-06-27T23:28:18.425Z,5.70
2018-06-27T23:30:47.454Z,3.23
2018-06-27T23:33:16.406Z,4.93
2018-06-27T23:35:45.190Z,15.47
2018-06-27T23:38:14.163Z,4.60
2018-06-27T23:40:43.192Z,4.87
2018-06-27T23:43:12.226Z,3.60
2018-06-27T23:45:41.456Z,3.23
2018-06-27T23:48:10.610Z,3.40
2018-06-27T23:50:39.664Z,3.50
2018-06-27T23:53:08.740Z,6.07
2018-06-27T23:55:38.366Z,7.03
2018-06-27T23:58:07.536Z,3.80
